Viimsi — ES2084 — position and weather

sailwx.info

Track history (hours):
 
Tides and Currents Weather Stations Pressure Air Temp Water Temp Dewpoint Dewpoint Depression Visibility Wind Speed Wind Dir Waves Ship Positions

Viimsi

Last reported at 2018-Apr-25 10:29 UTC. Time now 2018-Apr-25 10:47 UTC.
Position N 59°28' E 024°43'.

Length 77 m; draft 5 m.

Type: Ship. MMSI: 276297000.

Date/timePositionNaut miles runAvg speedWind from/ knotsBaromVisibWave heightAir tempDewpointWater temp
2018-Apr-25 10:29N 59°28' E 024°43'0 0.0
2018-Apr-25 09:59N 59°28' E 024°43'0 0.0
2018-Apr-25 09:29N 59°28' E 024°43'0 0.0
2018-Apr-25 08:59N 59°28' E 024°43'0 0.0
2018-Apr-25 08:29N 59°28' E 024°43'0 0.0
2018-Apr-25 07:59N 59°28' E 024°43'0 0.0
2018-Apr-25 07:29N 59°28' E 024°43'0 0.0
2018-Apr-25 06:59N 59°28' E 024°43'0 0.0
2018-Apr-25 06:29N 59°28' E 024°43'0 0.0
2018-Apr-25 05:59N 59°28' E 024°43'0 0.0
2018-Apr-25 05:30N 59°28' E 024°43'0 0.0
2018-Apr-25 05:01N 59°28' E 024°43'0 0.0
2018-Apr-25 04:31N 59°28' E 024°43'0 0.0
2018-Apr-25 04:00N 59°28' E 024°43'0 0.0
2018-Apr-25 03:31N 59°28' E 024°43'0 0.0
2018-Apr-25 03:01N 59°28' E 024°43'0 0.0
2018-Apr-25 02:31N 59°28' E 024°43'0 0.0
2018-Apr-25 02:01N 59°28' E 024°43'0 0.0
2018-Apr-25 01:31N 59°28' E 024°43'0 0.0
2018-Apr-25 01:01N 59°28' E 024°43'0 0.0
2018-Apr-25 00:31N 59°28' E 024°43'0 0.0
2018-Apr-25 00:00N 59°28' E 024°43'0 0.0
2018-Apr-24 23:31N 59°28' E 024°43'0 0.0
2018-Apr-24 23:01N 59°28' E 024°43'0 0.0
2018-Apr-24 22:31N 59°28' E 024°43'0 0.0
2018-Apr-24 22:01N 59°28' E 024°43'0 0.0
2018-Apr-24 21:30N 59°28' E 024°43'0 0.0
2018-Apr-24 21:00N 59°28' E 024°43'0 0.0
2018-Apr-24 20:30N 59°28' E 024°43'0 0.0
2018-Apr-24 20:00N 59°28' E 024°43'0 0.0
2018-Apr-24 19:31N 59°28' E 024°43'0 0.0
2018-Apr-24 19:00N 59°28' E 024°43'0 0.0
2018-Apr-24 18:30N 59°28' E 024°43'0 0.0
2018-Apr-24 18:01N 59°28' E 024°43'0 0.0
2018-Apr-24 17:30N 59°28' E 024°43'0 0.0
2018-Apr-24 17:01N 59°28' E 024°43'0 0.0
2018-Apr-24 16:31N 59°28' E 024°43'0 0.0
2018-Apr-24 16:01N 59°28' E 024°43'0 0.2
2018-Apr-24 15:31N 59°28' E 024°43'2 4.4
2018-Apr-24 15:01N 59°30' E 024°43'5 9.3
2018-Apr-24 14:30N 59°29' E 024°34'1 2.9
2018-Apr-24 14:00N 59°29' E 024°31'0 0.0
2018-Apr-24 13:30N 59°29' E 024°31'0 0.0
2018-Apr-24 13:00N 59°29' E 024°31'0 0.0
2018-Apr-24 12:31N 59°29' E 024°31'0 0.0
2018-Apr-24 12:00N 59°29' E 024°31'0 0.0
2018-Apr-24 11:30N 59°29' E 024°31'0 0.0
2018-Apr-24 11:00N 59°29' E 024°31'0 0.0
2018-Apr-24 10:30N 59°29' E 024°31'1 2.1
2018-Apr-24 10:01N 59°30' E 024°33'4 8.4
2018-Apr-24 09:30N 59°33' E 024°38'510.0
2018-Apr-24 09:01N 59°38' E 024°42'5 9.5
2018-Apr-24 08:31N 59°35' E 024°51'5 9.9
2018-Apr-24 08:00N 59°32' E 024°57'2 3.6
2018-Apr-24 07:31N 59°30' E 024°56'0 0.0
2018-Apr-24 07:00N 59°30' E 024°56'0 0.0
2018-Apr-24 06:28N 59°30' E 024°56'0 0.0
2018-Apr-24 05:58N 59°30' E 024°56'0 0.0
2018-Apr-24 05:29N 59°30' E 024°56'0 0.0
2018-Apr-24 04:58N 59°30' E 024°56'0 0.0
2018-Apr-24 04:28N 59°30' E 024°56'0 0.0
2018-Apr-24 03:59N 59°30' E 024°56'0 0.0
2018-Apr-24 03:28N 59°30' E 024°56'0 0.0
2018-Apr-24 02:58N 59°30' E 024°56'0 0.0
2018-Apr-24 02:28N 59°30' E 024°56'0 0.0
2018-Apr-24 01:59N 59°30' E 024°56'0 0.0
2018-Apr-24 01:28N 59°30' E 024°56'0 0.0
2018-Apr-24 00:59N 59°30' E 024°56'0 0.0
2018-Apr-24 00:29N 59°30' E 024°56'0 0.0
2018-Apr-23 23:58N 59°30' E 024°56'0 0.0
2018-Apr-23 23:28N 59°30' E 024°56'0 0.0
2018-Apr-23 22:59N 59°30' E 024°56'0 0.0
2018-Apr-23 22:29N 59°30' E 024°56'0 0.0
2018-Apr-23 21:58N 59°30' E 024°56'0 0.1
2018-Apr-23 21:28N 59°30' E 024°56'0 0.3
2018-Apr-23 20:58N 59°30' E 024°57'0 0.0
2018-Apr-23 20:29N 59°30' E 024°57'0 0.0
2018-Apr-23 19:59N 59°30' E 024°57'0 0.0
2018-Apr-23 19:29N 59°30' E 024°57'0 0.0
2018-Apr-23 18:58N 59°30' E 024°57'0 0.0
2018-Apr-23 18:28N 59°30' E 024°57'0 0.0
2018-Apr-23 17:58N 59°30' E 024°57'0 0.0
2018-Apr-23 17:28N 59°30' E 024°57'0 0.0
2018-Apr-23 16:58N 59°30' E 024°57'0 0.0
2018-Apr-23 16:28N 59°30' E 024°57'0 0.0
2018-Apr-23 15:58N 59°30' E 024°57'0 0.0
2018-Apr-23 15:28N 59°30' E 024°57'0 0.0
2018-Apr-23 14:59N 59°30' E 024°57'0 0.0
2018-Apr-23 14:26N 59°30' E 024°57'0 0.0
2018-Apr-23 13:58N 59°30' E 024°57'0 0.0
2018-Apr-23 13:28N 59°30' E 024°57'0 0.0
2018-Apr-23 12:58N 59°30' E 024°57'0 0.0
2018-Apr-23 12:28N 59°30' E 024°57'0 0.0
2018-Apr-23 11:59N 59°30' E 024°57'0 0.0
2018-Apr-23 11:29N 59°30' E 024°57'0 0.0
2018-Apr-23 10:58N 59°30' E 024°57'0 0.0
2018-Apr-23 10:29N 59°30' E 024°57'0 0.0
2018-Apr-23 09:58N 59°30' E 024°57'0 0.0
2018-Apr-23 09:28N 59°30' E 024°57'0 0.0
2018-Apr-23 08:59N 59°30' E 024°57'0 0.0
2018-Apr-23 08:29N 59°30' E 024°57'0 0.0
2018-Apr-23 07:58N 59°30' E 024°57'0 0.0
2018-Apr-23 07:28N 59°30' E 024°57'0 0.0
2018-Apr-23 06:59N 59°30' E 024°57'0 0.0
2018-Apr-23 06:28N 59°30' E 024°57'0 0.0
2018-Apr-23 05:59N 59°30' E 024°57'0 0.0
2018-Apr-23 05:29N 59°30' E 024°57'0 0.0
2018-Apr-23 05:00N 59°30' E 024°57'0 0.0
2018-Apr-23 04:30N 59°30' E 024°57'0 0.0
2018-Apr-23 04:00N 59°30' E 024°57'0 0.0
2018-Apr-23 03:31N 59°30' E 024°57'0 0.0
2018-Apr-23 03:00N 59°30' E 024°57'0 0.0
2018-Apr-23 02:30N 59°30' E 024°57'0 0.0
2018-Apr-23 02:00N 59°30' E 024°57'0 0.0
2018-Apr-23 01:30N 59°30' E 024°57'0 0.0
2018-Apr-23 01:00N 59°30' E 024°57'0 0.0
2018-Apr-23 00:30N 59°30' E 024°57'0 0.0
2018-Apr-23 00:00N 59°30' E 024°57'0 0.0
2018-Apr-22 23:31N 59°30' E 024°57'0 0.0
2018-Apr-22 23:01N 59°30' E 024°57'0 0.0
2018-Apr-22 22:30N 59°30' E 024°57'0 0.0
2018-Apr-22 22:01N 59°30' E 024°57'1 1.9
2018-Apr-22 21:30N 59°31' E 024°58'510.4
2018-Apr-22 21:00N 59°34' E 024°50'1 2.8
2018-Apr-22 20:30N 59°35' E 024°48'0 0.1
2018-Apr-22 20:00N 59°35' E 024°48'0 0.3
2018-Apr-22 19:31N 59°35' E 024°48'2 5.0
2018-Apr-22 19:00N 59°37' E 024°46'2 4.6
2018-Apr-22 18:31N 59°36' E 024°41'3 6.3
2018-Apr-22 18:00N 59°33' E 024°44'510.1
2018-Apr-22 17:30N 59°28' E 024°45'1 2.3
2018-Apr-22 17:00N 59°28' E 024°43'0 0.0
2018-Apr-22 16:30N 59°28' E 024°43'0 0.0
2018-Apr-22 16:00N 59°28' E 024°43'0 0.0
2018-Apr-22 15:30N 59°28' E 024°43'0 0.0
2018-Apr-22 15:00N 59°28' E 024°43'0 0.0
2018-Apr-22 14:30N 59°28' E 024°43'0 0.0
2018-Apr-22 14:00N 59°28' E 024°43'0 0.0
2018-Apr-22 13:30N 59°28' E 024°43'0 0.0
2018-Apr-22 13:00N 59°28' E 024°43'0 0.0
2018-Apr-22 12:30N 59°28' E 024°43'0 0.0
2018-Apr-22 12:01N 59°28' E 024°43'0 0.0
2018-Apr-22 11:30N 59°28' E 024°43'0 0.0
2018-Apr-22 11:00N 59°28' E 024°43'0 0.0
2018-Apr-22 10:30N 59°28' E 024°43'0 0.0
2018-Apr-22 10:00N 59°28' E 024°43'0 0.0
2018-Apr-22 09:31N 59°28' E 024°43'0 0.0
2018-Apr-22 09:00N 59°28' E 024°43'0 0.0
2018-Apr-22 08:30N 59°28' E 024°43'0 0.0
2018-Apr-22 08:00N 59°28' E 024°43'0 0.0
2018-Apr-22 07:30N 59°28' E 024°43'0 0.0
2018-Apr-22 07:00N 59°28' E 024°43'0 0.0
2018-Apr-22 06:30N 59°28' E 024°43'0 0.0
2018-Apr-22 06:00N 59°28' E 024°43'0 0.0
2018-Apr-22 05:30N 59°28' E 024°43'0 0.0
2018-Apr-22 05:00N 59°28' E 024°43'0 0.0
2018-Apr-22 04:30N 59°28' E 024°43'0 0.0
2018-Apr-22 04:00N 59°28' E 024°43'0 0.0
2018-Apr-22 03:30N 59°28' E 024°43'0 0.0
2018-Apr-22 03:00N 59°28' E 024°43'0 0.0
2018-Apr-22 02:31N 59°28' E 024°43'0 0.0
2018-Apr-22 02:01N 59°28' E 024°43'0 0.0
2018-Apr-22 01:30N 59°28' E 024°43'0 0.0
2018-Apr-22 01:00N 59°28' E 024°43'0 0.0
2018-Apr-22 00:30N 59°28' E 024°43'0 0.0
2018-Apr-22 00:01N 59°28' E 024°43'0 0.0
2018-Apr-21 23:31N 59°28' E 024°43'0 0.0
2018-Apr-21 23:01N 59°28' E 024°43'0 0.0
2018-Apr-21 22:30N 59°28' E 024°43'0 0.0
2018-Apr-21 22:00N 59°28' E 024°43'0 0.0
2018-Apr-21 21:30N 59°28' E 024°43'0 0.0
2018-Apr-21 21:01N 59°28' E 024°43'0 0.0
2018-Apr-21 20:31N 59°28' E 024°43'0 0.0
2018-Apr-21 20:01N 59°28' E 024°43'0 0.0
2018-Apr-21 19:30N 59°28' E 024°43'0 0.0
2018-Apr-21 19:00N 59°28' E 024°43'0 0.0
2018-Apr-21 18:31N 59°28' E 024°43'0 0.0
2018-Apr-21 18:00N 59°28' E 024°43'0 0.0
2018-Apr-21 17:30N 59°28' E 024°43'0 0.0
2018-Apr-21 17:01N 59°28' E 024°43'0 0.0
2018-Apr-21 16:30N 59°28' E 024°43'0 0.0
2018-Apr-21 16:00N 59°28' E 024°43'0 0.0
2018-Apr-21 15:30N 59°28' E 024°43'0 0.0
2018-Apr-21 15:01N 59°28' E 024°43'0 0.0
2018-Apr-21 14:30N 59°28' E 024°43'1 2.6
2018-Apr-21 14:00N 59°29' E 024°44'510.4
2018-Apr-21 13:31N 59°34' E 024°41'4 8.3
2018-Apr-21 13:00N 59°38' E 024°43'4 8.4
2018-Apr-21 12:31N 59°35' E 024°49'0 0.3
2018-Apr-21 12:00N 59°35' E 024°50'0 0.0
2018-Apr-21 11:30N 59°35' E 024°50'0 0.1
2018-Apr-21 11:00N 59°35' E 024°50'0 0.1
2018-Apr-21 10:30N 59°35' E 024°49'0 0.0
2018-Apr-21 10:01N 59°35' E 024°49'0 0.2
2018-Apr-21 09:30N 59°35' E 024°50'3 6.4
2018-Apr-21 09:00N 59°37' E 024°45'4 7.2
2018-Apr-21 08:30N 59°34' E 024°43'3 5.6
2018-Apr-21 08:00N 59°31' E 024°45'3 6.0
2018-Apr-21 07:30N 59°28' E 024°44'1 2.1
2018-Apr-21 07:00N 59°28' E 024°43'0 0.0
2018-Apr-21 06:30N 59°28' E 024°43'0 0.0
2018-Apr-21 06:00N 59°28' E 024°43'0 0.0
2018-Apr-21 05:31N 59°28' E 024°43'0 0.0
2018-Apr-21 05:00N 59°28' E 024°43'0 0.0
2018-Apr-21 04:30N 59°28' E 024°43'0 0.0
2018-Apr-21 04:00N 59°28' E 024°43'0 0.0
2018-Apr-21 03:30N 59°28' E 024°43'0 0.0
2018-Apr-21 03:00N 59°28' E 024°43'0 0.0
2018-Apr-21 02:30N 59°28' E 024°43'0 0.0
2018-Apr-21 02:00N 59°28' E 024°43'0 0.0
2018-Apr-21 01:30N 59°28' E 024°43'0 0.0
2018-Apr-21 01:01N 59°28' E 024°43'0 0.0
2018-Apr-21 00:30N 59°28' E 024°43'0 0.0
2018-Apr-21 00:00N 59°28' E 024°43'0 0.3
2018-Apr-20 23:30N 59°28' E 024°43'3 6.1
2018-Apr-20 23:00N 59°30' E 024°40'2 4.3
2018-Apr-20 22:31N 59°30' E 024°36'0 0.0
2018-Apr-20 22:00N 59°30' E 024°37'0 0.1
2018-Apr-20 21:30N 59°30' E 024°36'0 0.0
2018-Apr-20 21:00N 59°30' E 024°36'0 0.0
2018-Apr-20 20:30N 59°30' E 024°36'0 0.1
2018-Apr-20 20:00N 59°30' E 024°37'0 0.0
2018-Apr-20 19:30N 59°30' E 024°37'0 0.1
2018-Apr-20 19:00N 59°30' E 024°37'2 4.0
2018-Apr-20 18:30N 59°28' E 024°38'0 0.5
2018-Apr-20 18:00N 59°28' E 024°39'0 0.0
2018-Apr-20 17:30N 59°28' E 024°39'0 0.0
2018-Apr-20 17:01N 59°28' E 024°39'0 0.0
2018-Apr-20 16:30N 59°28' E 024°39'0 0.4
2018-Apr-20 16:00N 59°28' E 024°39'0 0.0
2018-Apr-20 15:30N 59°28' E 024°39'0 0.0
2018-Apr-20 15:00N 59°28' E 024°39'0 0.0
2018-Apr-20 14:30N 59°28' E 024°39'0 0.0
2018-Apr-20 14:00N 59°28' E 024°39'0 0.0
2018-Apr-20 13:30N 59°28' E 024°39'0 0.3
2018-Apr-20 13:00N 59°28' E 024°39'3 5.9
2018-Apr-20 12:31N 59°30' E 024°35'4 8.8
2018-Apr-20 12:00N 59°34' E 024°39'4 8.4
2018-Apr-20 11:30N 59°37' E 024°42'4 7.6
2018-Apr-20 11:00N 59°36' E 024°49'5 9.1
2018-Apr-20 10:30N 59°33' E 024°55'3 5.6
2018-Apr-20 09:58N 59°30' E 024°56'0 0.0
2018-Apr-20 09:28N 59°30' E 024°56'0 0.0
2018-Apr-20 08:58N 59°30' E 024°56'0 0.0
2018-Apr-20 08:30N 59°30' E 024°56'0 0.0
2018-Apr-20 07:58N 59°30' E 024°56'0 0.0
2018-Apr-20 07:28N 59°30' E 024°56'0 0.0
2018-Apr-20 06:58N 59°30' E 024°56'0 0.0
2018-Apr-20 06:28N 59°30' E 024°56'0 0.0
2018-Apr-20 05:58N 59°30' E 024°56'0 0.0
2018-Apr-20 05:31N 59°30' E 024°56'0 0.0
2018-Apr-20 04:58N 59°30' E 024°56'0 0.0
2018-Apr-20 04:28N 59°30' E 024°56'0 0.0
2018-Apr-20 03:58N 59°30' E 024°56'0 0.0
2018-Apr-20 03:28N 59°30' E 024°56'0 0.0
2018-Apr-20 02:58N 59°30' E 024°56'0 0.0
2018-Apr-20 02:28N 59°30' E 024°56'0 0.0
2018-Apr-20 01:58N 59°30' E 024°56'0 0.0
2018-Apr-20 01:30N 59°30' E 024°56'0 0.0
2018-Apr-20 00:58N 59°30' E 024°56'0 0.0
2018-Apr-20 00:28N 59°30' E 024°56'0 0.0
2018-Apr-19 23:58N 59°30' E 024°56'0 0.3
2018-Apr-19 23:28N 59°30' E 024°57'0 0.0
2018-Apr-19 23:01N 59°30' E 024°57'0 0.0
2018-Apr-19 22:28N 59°30' E 024°57'0 0.0
2018-Apr-19 21:58N 59°30' E 024°57'0 0.0
2018-Apr-19 21:28N 59°30' E 024°57'0 0.1
2018-Apr-19 21:01N 59°30' E 024°57'2 4.6
2018-Apr-19 20:30N 59°32' E 024°56'5 9.6
2018-Apr-19 20:00N 59°35' E 024°49'0 0.3
2018-Apr-19 19:30N 59°35' E 024°49'0 0.0
2018-Apr-19 19:01N 59°35' E 024°49'0 0.0
2018-Apr-19 18:30N 59°35' E 024°49'0 0.0
2018-Apr-19 18:01N 59°35' E 024°49'0 0.0
2018-Apr-19 17:30N 59°35' E 024°49'1 2.1
2018-Apr-19 17:01N 59°36' E 024°48'3 6.5
2018-Apr-19 16:30N 59°35' E 024°42'5 9.9
2018-Apr-19 16:00N 59°31' E 024°44'5 9.3
2018-Apr-19 15:30N 59°28' E 024°37'0 0.9
2018-Apr-19 14:58N 59°27' E 024°37'0 0.0
2018-Apr-19 14:28N 59°27' E 024°37'0 0.0
2018-Apr-19 13:58N 59°27' E 024°37'0 0.0
2018-Apr-19 13:28N 59°27' E 024°37'0 0.0
2018-Apr-19 12:58N 59°27' E 024°37'0 0.0
2018-Apr-19 12:31N 59°27' E 024°37'1 1.8
2018-Apr-19 12:00N 59°27' E 024°39'0 0.8
2018-Apr-19 11:31N 59°28' E 024°39'0 0.0
2018-Apr-19 11:01N 59°28' E 024°39'0 0.0
2018-Apr-19 10:31N 59°28' E 024°39'0 0.0
2018-Apr-19 10:01N 59°28' E 024°39'0 0.0
2018-Apr-19 09:31N 59°28' E 024°39'0 0.0
2018-Apr-19 09:01N 59°28' E 024°39'0 0.5
2018-Apr-19 08:31N 59°27' E 024°39'3 5.2
2018-Apr-19 08:00N 59°30' E 024°40'3 5.4
2018-Apr-19 07:30N 59°28' E 024°43'0 0.2
2018-Apr-19 07:01N 59°28' E 024°43'0 0.0
2018-Apr-19 06:30N 59°28' E 024°43'0 0.0
2018-Apr-19 06:00N 59°28' E 024°43'0 0.0
2018-Apr-19 05:30N 59°28' E 024°43'0 0.0
2018-Apr-19 05:00N 59°28' E 024°43'0 0.0
2018-Apr-19 04:30N 59°28' E 024°43'0 0.0
2018-Apr-19 04:00N 59°28' E 024°43'0 0.0
2018-Apr-19 03:30N 59°28' E 024°43'0 0.0
2018-Apr-19 03:00N 59°28' E 024°43'0 0.0
2018-Apr-19 02:30N 59°28' E 024°43'0 0.0
2018-Apr-19 02:00N 59°28' E 024°43'0 0.0
2018-Apr-19 01:30N 59°28' E 024°43'0 0.0
2018-Apr-19 01:00N 59°28' E 024°43'0 0.0
2018-Apr-19 00:29N 59°28' E 024°43'0 0.0
2018-Apr-19 00:00N 59°28' E 024°43'0 0.0
2018-Apr-18 23:31N 59°28' E 024°43'0 0.0
2018-Apr-18 23:00N 59°28' E 024°43'0 0.0
2018-Apr-18 22:30N 59°28' E 024°43'0 0.0
2018-Apr-18 22:00N 59°28' E 024°43'0 0.0
2018-Apr-18 21:30N 59°28' E 024°43'0 0.0
2018-Apr-18 21:00N 59°28' E 024°43'0 0.0
2018-Apr-18 20:31N 59°28' E 024°43'0 0.0
2018-Apr-18 20:01N 59°28' E 024°43'0 0.0
2018-Apr-18 19:30N 59°28' E 024°43'0 0.0
2018-Apr-18 19:00N 59°28' E 024°43'0 0.0
2018-Apr-18 18:30N 59°28' E 024°43'0 0.0
2018-Apr-18 18:00N 59°28' E 024°43'0 0.0
2018-Apr-18 17:30N 59°28' E 024°43'0 0.0
2018-Apr-18 17:00N 59°28' E 024°43'0 0.0
2018-Apr-18 16:30N 59°28' E 024°43'0 0.0
2018-Apr-18 16:00N 59°28' E 024°43'0 0.0
2018-Apr-18 15:30N 59°28' E 024°43'0 0.0
2018-Apr-18 15:00N 59°28' E 024°43'0 0.0
2018-Apr-18 14:30N 59°28' E 024°43'0 0.0
2018-Apr-18 14:00N 59°28' E 024°43'0 0.0
2018-Apr-18 13:30N 59°28' E 024°43'0 0.1
2018-Apr-18 13:00N 59°28' E 024°43'0 0.4
2018-Apr-18 12:25N 59°28' E 024°42'0 0.0
2018-Apr-18 11:55N 59°28' E 024°42'0 0.0
2018-Apr-18 11:25N 59°28' E 024°42'0 0.0
2018-Apr-18 10:56N 59°28' E 024°42'0 0.0
2018-Apr-18 10:25N 59°28' E 024°42'0 0.0
2018-Apr-18 09:59N 59°28' E 024°42'0 0.0
2018-Apr-18 09:26N 59°28' E 024°42'0 0.0
2018-Apr-18 08:56N 59°28' E 024°42'0 0.0
2018-Apr-18 08:26N 59°28' E 024°42'0 0.0
2018-Apr-18 07:55N 59°28' E 024°42'0 0.0
2018-Apr-18 07:27N 59°28' E 024°42'0 0.0
2018-Apr-18 06:55N 59°28' E 024°42'0 0.0
2018-Apr-18 06:25N 59°28' E 024°42'0 0.0
2018-Apr-18 05:56N 59°28' E 024°42'0 0.0
2018-Apr-18 05:25N 59°28' E 024°42'0 0.0
2018-Apr-18 04:56N 59°28' E 024°42'0 0.0
2018-Apr-18 04:26N 59°28' E 024°42'0 0.0
2018-Apr-18 03:56N 59°28' E 024°42'0 0.0
2018-Apr-18 03:26N 59°28' E 024°42'0 0.0
2018-Apr-18 02:56N 59°28' E 024°42'0 0.0
2018-Apr-18 02:26N 59°28' E 024°42'0 0.0
2018-Apr-18 01:55N 59°28' E 024°42'0 0.0
2018-Apr-18 01:25N 59°28' E 024°42'0 0.0
2018-Apr-18 00:56N 59°28' E 024°42'0 0.0
2018-Apr-18 00:25N 59°28' E 024°42'0 0.0
2018-Apr-17 23:56N 59°28' E 024°42'0 0.0
2018-Apr-17 23:25N 59°28' E 024°42'0 0.0
2018-Apr-17 22:56N 59°28' E 024°42'0 0.0
2018-Apr-17 22:26N 59°28' E 024°42'0 0.0
2018-Apr-17 21:56N 59°28' E 024°42'0 0.0
2018-Apr-17 21:25N 59°28' E 024°42'0 0.0
2018-Apr-17 20:56N 59°28' E 024°42'0 0.0
2018-Apr-17 20:26N 59°28' E 024°42'0 0.0
2018-Apr-17 19:56N 59°28' E 024°42'0 0.0
2018-Apr-17 19:25N 59°28' E 024°42'0 0.0
2018-Apr-17 18:56N 59°28' E 024°42'0 0.0
2018-Apr-17 18:26N 59°28' E 024°42'0 0.0
2018-Apr-17 17:57N 59°28' E 024°42'0 0.0
2018-Apr-17 17:25N 59°28' E 024°42'0 0.0
2018-Apr-17 16:56N 59°28' E 024°42'0 0.0
2018-Apr-17 16:26N 59°28' E 024°42'0 0.0
2018-Apr-17 15:56N 59°28' E 024°42'0 0.0
2018-Apr-17 15:26N 59°28' E 024°42'0 0.0
2018-Apr-17 14:56N 59°28' E 024°42'0 0.0
2018-Apr-17 14:25N 59°28' E 024°42'0 0.0
2018-Apr-17 13:56N 59°28' E 024°42'0 0.0
2018-Apr-17 13:27N 59°28' E 024°42'0 0.0
2018-Apr-17 12:56N 59°28' E 024°42'0 0.0
2018-Apr-17 12:26N 59°28' E 024°42'0 0.0
2018-Apr-17 11:56N 59°28' E 024°42'0 0.0
2018-Apr-17 11:27N 59°28' E 024°42'0 0.0
2018-Apr-17 10:57N 59°28' E 024°42'0 0.0
2018-Apr-17 10:27N 59°28' E 024°42'0 0.0
2018-Apr-17 09:57N 59°28' E 024°42'0 0.0
2018-Apr-17 09:25N 59°28' E 024°42'0 0.0
2018-Apr-17 08:58N 59°28' E 024°42'0 0.0
2018-Apr-17 08:29N 59°28' E 024°42'0 0.0
2018-Apr-17 07:58N 59°28' E 024°42'0 0.0
2018-Apr-17 07:28N 59°28' E 024°42'0 0.0
2018-Apr-17 06:58N 59°28' E 024°42'0 0.0
2018-Apr-17 06:28N 59°28' E 024°42'0 0.0
2018-Apr-17 05:58N 59°28' E 024°42'0 0.0
2018-Apr-17 05:28N 59°28' E 024°42'0 0.0
2018-Apr-17 04:58N 59°28' E 024°42'0 0.0
2018-Apr-17 04:28N 59°28' E 024°42'0 0.0
2018-Apr-17 03:58N 59°28' E 024°42'0 0.0
2018-Apr-17 03:28N 59°28' E 024°42'0 0.0
2018-Apr-17 02:58N 59°28' E 024°42'0 0.0
2018-Apr-17 02:29N 59°28' E 024°42'0 0.0
2018-Apr-17 01:59N 59°28' E 024°42'0 0.0
2018-Apr-17 01:30N 59°28' E 024°42'0 0.0
2018-Apr-17 00:59N 59°28' E 024°42'0 0.0
2018-Apr-17 00:29N 59°28' E 024°42'0 0.0
2018-Apr-16 23:59N 59°28' E 024°42'0 0.0
2018-Apr-16 23:29N 59°28' E 024°42'0 0.0
2018-Apr-16 22:59N 59°28' E 024°42'0 0.0
2018-Apr-16 22:30N 59°28' E 024°42'0 0.0
2018-Apr-16 21:59N 59°28' E 024°42'0 0.0
2018-Apr-16 21:29N 59°28' E 024°42'0 0.0
2018-Apr-16 20:59N 59°28' E 024°42'0 0.0
2018-Apr-16 20:29N 59°28' E 024°42'0 0.0
2018-Apr-16 19:59N 59°28' E 024°42'0 0.0
2018-Apr-16 19:29N 59°28' E 024°42'0 0.0
2018-Apr-16 18:59N 59°28' E 024°42'0 0.0
2018-Apr-16 18:29N 59°28' E 024°42'0 0.0
2018-Apr-16 17:59N 59°28' E 024°42'0 0.0
2018-Apr-16 17:29N 59°28' E 024°42'0 0.0
2018-Apr-16 17:00N 59°28' E 024°42'0 0.0
2018-Apr-16 16:29N 59°28' E 024°42'0 0.0
2018-Apr-16 15:59N 59°28' E 024°42'0 0.0
2018-Apr-16 15:29N 59°28' E 024°42'0 0.0
2018-Apr-16 14:54N 59°28' E 024°42'0 0.0
2018-Apr-16 14:30N 59°28' E 024°42'0 0.0
2018-Apr-16 14:00N 59°28' E 024°42'0 0.0
2018-Apr-16 13:30N 59°28' E 024°42'0 0.0
2018-Apr-16 13:00N 59°28' E 024°42'0 0.0
2018-Apr-16 12:30N 59°28' E 024°42'0 0.0
2018-Apr-16 12:00N 59°28' E 024°42'0 0.0
2018-Apr-16 11:30N 59°28' E 024°42'0 0.0
2018-Apr-16 11:00N 59°28' E 024°42'0 0.0
2018-Apr-16 10:30N 59°28' E 024°42'0 0.0
2018-Apr-16 10:00N 59°28' E 024°42'0 0.0
2018-Apr-16 09:30N 59°28' E 024°42'0 0.0
2018-Apr-16 09:01N 59°28' E 024°42'0 0.0
2018-Apr-16 08:30N 59°28' E 024°42'0 0.0
2018-Apr-16 08:00N 59°28' E 024°42'0 0.0
2018-Apr-16 07:30N 59°28' E 024°42'0 0.0
2018-Apr-16 07:00N 59°28' E 024°42'0 0.0
2018-Apr-16 06:30N 59°28' E 024°42'0 0.0
2018-Apr-16 06:00N 59°28' E 024°42'0 0.0
2018-Apr-16 05:31N 59°28' E 024°42'0 0.0
2018-Apr-16 05:00N 59°28' E 024°42'0 0.0
2018-Apr-16 04:30N 59°28' E 024°42'0 0.0
2018-Apr-16 04:00N 59°28' E 024°42'0 0.0
2018-Apr-16 03:30N 59°28' E 024°42'0 0.0
2018-Apr-16 03:00N 59°28' E 024°42'0 0.0
2018-Apr-16 02:30N 59°28' E 024°42'0 0.0
2018-Apr-16 02:00N 59°28' E 024°42'0 0.0
2018-Apr-16 01:31N 59°28' E 024°42'0 0.0
2018-Apr-16 01:00N 59°28' E 024°42'0 0.0
2018-Apr-16 00:30N 59°28' E 024°42'0 0.0
2018-Apr-16 00:00N 59°28' E 024°42'0 0.0
2018-Apr-15 23:30N 59°28' E 024°42'0 0.0
2018-Apr-15 23:00N 59°28' E 024°42'0 0.0
2018-Apr-15 22:30N 59°28' E 024°42'0 0.0
2018-Apr-15 22:00N 59°28' E 024°42'0 0.0
2018-Apr-15 21:31N 59°28' E 024°42'0 0.0
2018-Apr-15 21:00N 59°28' E 024°42'0 0.0
2018-Apr-15 20:30N 59°28' E 024°42'0 0.0
2018-Apr-15 20:01N 59°28' E 024°42'0 0.0
2018-Apr-15 19:30N 59°28' E 024°42'0 0.0
2018-Apr-15 19:00N 59°28' E 024°42'0 0.0
2018-Apr-15 18:30N 59°28' E 024°42'0 0.0
2018-Apr-15 18:00N 59°28' E 024°42'0 0.0
2018-Apr-15 17:30N 59°28' E 024°42'0 0.0
2018-Apr-15 17:00N 59°28' E 024°42'0 0.0
2018-Apr-15 16:30N 59°28' E 024°42'0 0.0
2018-Apr-15 15:57N 59°28' E 024°42'0 0.0
2018-Apr-15 15:30N 59°28' E 024°42'0 0.0
2018-Apr-15 15:00N 59°28' E 024°42'0 0.0
2018-Apr-15 14:30N 59°28' E 024°42'0 0.0
2018-Apr-15 14:01N 59°28' E 024°42'0 0.0
2018-Apr-15 13:31N 59°28' E 024°42'0 0.0
2018-Apr-15 12:57N 59°28' E 024°42'0 0.0
2018-Apr-15 12:30N 59°28' E 024°42'0 0.0
2018-Apr-15 12:00N 59°28' E 024°42'2 3.1
2018-Apr-15 11:30N 59°29' E 024°44'4 8.2
2018-Apr-15 11:00N 59°29' E 024°36'0 0.2
2018-Apr-15 10:30N 59°29' E 024°36'  
Track history (hours):
 
Tides and Currents Weather Stations Pressure Air Temp Water Temp Dewpoint Dewpoint Depression Visibility Wind Speed Wind Dir Waves Ship Positions

Viimsi

Last reported at 2018-Apr-25 10:29 UTC. Time now 2018-Apr-25 10:47 UTC.
Position N 59°28' E 024°43'.

Length 77 m; draft 5 m.

Type: Ship. MMSI: 276297000.

Date/timePositionNaut miles runAvg speedWind from/ knotsBaromVisibWave heightAir tempDewpointWater temp
2018-Apr-25 10:29N 59°28' E 024°43'0 0.0
2018-Apr-25 09:59N 59°28' E 024°43'0 0.0
2018-Apr-25 09:29N 59°28' E 024°43'0 0.0
2018-Apr-25 08:59N 59°28' E 024°43'0 0.0
2018-Apr-25 08:29N 59°28' E 024°43'0 0.0
2018-Apr-25 07:59N 59°28' E 024°43'0 0.0
2018-Apr-25 07:29N 59°28' E 024°43'0 0.0
2018-Apr-25 06:59N 59°28' E 024°43'0 0.0
2018-Apr-25 06:29N 59°28' E 024°43'0 0.0
2018-Apr-25 05:59N 59°28' E 024°43'0 0.0
2018-Apr-25 05:30N 59°28' E 024°43'0 0.0
2018-Apr-25 05:01N 59°28' E 024°43'0 0.0
2018-Apr-25 04:31N 59°28' E 024°43'0 0.0
2018-Apr-25 04:00N 59°28' E 024°43'0 0.0
2018-Apr-25 03:31N 59°28' E 024°43'0 0.0
2018-Apr-25 03:01N 59°28' E 024°43'0 0.0
2018-Apr-25 02:31N 59°28' E 024°43'0 0.0
2018-Apr-25 02:01N 59°28' E 024°43'0 0.0
2018-Apr-25 01:31N 59°28' E 024°43'0 0.0
2018-Apr-25 01:01N 59°28' E 024°43'0 0.0
2018-Apr-25 00:31N 59°28' E 024°43'0 0.0
2018-Apr-25 00:00N 59°28' E 024°43'0 0.0
2018-Apr-24 23:31N 59°28' E 024°43'0 0.0
2018-Apr-24 23:01N 59°28' E 024°43'0 0.0
2018-Apr-24 22:31N 59°28' E 024°43'0 0.0
2018-Apr-24 22:01N 59°28' E 024°43'0 0.0
2018-Apr-24 21:30N 59°28' E 024°43'0 0.0
2018-Apr-24 21:00N 59°28' E 024°43'0 0.0
2018-Apr-24 20:30N 59°28' E 024°43'0 0.0
2018-Apr-24 20:00N 59°28' E 024°43'0 0.0
2018-Apr-24 19:31N 59°28' E 024°43'0 0.0
2018-Apr-24 19:00N 59°28' E 024°43'0 0.0
2018-Apr-24 18:30N 59°28' E 024°43'0 0.0
2018-Apr-24 18:01N 59°28' E 024°43'0 0.0
2018-Apr-24 17:30N 59°28' E 024°43'0 0.0
2018-Apr-24 17:01N 59°28' E 024°43'0 0.0
2018-Apr-24 16:31N 59°28' E 024°43'0 0.0
2018-Apr-24 16:01N 59°28' E 024°43'0 0.2
2018-Apr-24 15:31N 59°28' E 024°43'2 4.4
2018-Apr-24 15:01N 59°30' E 024°43'5 9.3
2018-Apr-24 14:30N 59°29' E 024°34'1 2.9
2018-Apr-24 14:00N 59°29' E 024°31'0 0.0
2018-Apr-24 13:30N 59°29' E 024°31'0 0.0
2018-Apr-24 13:00N 59°29' E 024°31'0 0.0
2018-Apr-24 12:31N 59°29' E 024°31'0 0.0
2018-Apr-24 12:00N 59°29' E 024°31'0 0.0
2018-Apr-24 11:30N 59°29' E 024°31'0 0.0
2018-Apr-24 11:00N 59°29' E 024°31'0 0.0
2018-Apr-24 10:30N 59°29' E 024°31'1 2.1
2018-Apr-24 10:01N 59°30' E 024°33'4 8.4
2018-Apr-24 09:30N 59°33' E 024°38'510.0
2018-Apr-24 09:01N 59°38' E 024°42'5 9.5
2018-Apr-24 08:31N 59°35' E 024°51'5 9.9
2018-Apr-24 08:00N 59°32' E 024°57'2 3.6
2018-Apr-24 07:31N 59°30' E 024°56'0 0.0
2018-Apr-24 07:00N 59°30' E 024°56'0 0.0
2018-Apr-24 06:28N 59°30' E 024°56'0 0.0
2018-Apr-24 05:58N 59°30' E 024°56'0 0.0
2018-Apr-24 05:29N 59°30' E 024°56'0 0.0
2018-Apr-24 04:58N 59°30' E 024°56'0 0.0
2018-Apr-24 04:28N 59°30' E 024°56'0 0.0
2018-Apr-24 03:59N 59°30' E 024°56'0 0.0
2018-Apr-24 03:28N 59°30' E 024°56'0 0.0
2018-Apr-24 02:58N 59°30' E 024°56'0 0.0
2018-Apr-24 02:28N 59°30' E 024°56'0 0.0
2018-Apr-24 01:59N 59°30' E 024°56'0 0.0
2018-Apr-24 01:28N 59°30' E 024°56'0 0.0
2018-Apr-24 00:59N 59°30' E 024°56'0 0.0
2018-Apr-24 00:29N 59°30' E 024°56'0 0.0
2018-Apr-23 23:58N 59°30' E 024°56'0 0.0
2018-Apr-23 23:28N 59°30' E 024°56'0 0.0
2018-Apr-23 22:59N 59°30' E 024°56'0 0.0
2018-Apr-23 22:29N 59°30' E 024°56'0 0.0
2018-Apr-23 21:58N 59°30' E 024°56'0 0.1
2018-Apr-23 21:28N 59°30' E 024°56'0 0.3
2018-Apr-23 20:58N 59°30' E 024°57'0 0.0
2018-Apr-23 20:29N 59°30' E 024°57'0 0.0
2018-Apr-23 19:59N 59°30' E 024°57'0 0.0
2018-Apr-23 19:29N 59°30' E 024°57'0 0.0
2018-Apr-23 18:58N 59°30' E 024°57'0 0.0
2018-Apr-23 18:28N 59°30' E 024°57'0 0.0
2018-Apr-23 17:58N 59°30' E 024°57'0 0.0
2018-Apr-23 17:28N 59°30' E 024°57'0 0.0
2018-Apr-23 16:58N 59°30' E 024°57'0 0.0
2018-Apr-23 16:28N 59°30' E 024°57'0 0.0
2018-Apr-23 15:58N 59°30' E 024°57'0 0.0
2018-Apr-23 15:28N 59°30' E 024°57'0 0.0
2018-Apr-23 14:59N 59°30' E 024°57'0 0.0
2018-Apr-23 14:26N 59°30' E 024°57'0 0.0
2018-Apr-23 13:58N 59°30' E 024°57'0 0.0
2018-Apr-23 13:28N 59°30' E 024°57'0 0.0
2018-Apr-23 12:58N 59°30' E 024°57'0 0.0
2018-Apr-23 12:28N 59°30' E 024°57'0 0.0
2018-Apr-23 11:59N 59°30' E 024°57'0 0.0
2018-Apr-23 11:29N 59°30' E 024°57'0 0.0
2018-Apr-23 10:58N 59°30' E 024°57'0 0.0
2018-Apr-23 10:29N 59°30' E 024°57'0 0.0
2018-Apr-23 09:58N 59°30' E 024°57'0 0.0
2018-Apr-23 09:28N 59°30' E 024°57'0 0.0
2018-Apr-23 08:59N 59°30' E 024°57'0 0.0
2018-Apr-23 08:29N 59°30' E 024°57'0 0.0
2018-Apr-23 07:58N 59°30' E 024°57'0 0.0
2018-Apr-23 07:28N 59°30' E 024°57'0 0.0
2018-Apr-23 06:59N 59°30' E 024°57'0 0.0
2018-Apr-23 06:28N 59°30' E 024°57'0 0.0
2018-Apr-23 05:59N 59°30' E 024°57'0 0.0
2018-Apr-23 05:29N 59°30' E 024°57'0 0.0
2018-Apr-23 05:00N 59°30' E 024°57'0 0.0
2018-Apr-23 04:30N 59°30' E 024°57'0 0.0
2018-Apr-23 04:00N 59°30' E 024°57'0 0.0
2018-Apr-23 03:31N 59°30' E 024°57'0 0.0
2018-Apr-23 03:00N 59°30' E 024°57'0 0.0
2018-Apr-23 02:30N 59°30' E 024°57'0 0.0
2018-Apr-23 02:00N 59°30' E 024°57'0 0.0
2018-Apr-23 01:30N 59°30' E 024°57'0 0.0
2018-Apr-23 01:00N 59°30' E 024°57'0 0.0
2018-Apr-23 00:30N 59°30' E 024°57'0 0.0
2018-Apr-23 00:00N 59°30' E 024°57'0 0.0
2018-Apr-22 23:31N 59°30' E 024°57'0 0.0
2018-Apr-22 23:01N 59°30' E 024°57'0 0.0
2018-Apr-22 22:30N 59°30' E 024°57'0 0.0
2018-Apr-22 22:01N 59°30' E 024°57'1 1.9
2018-Apr-22 21:30N 59°31' E 024°58'510.4
2018-Apr-22 21:00N 59°34' E 024°50'1 2.8
2018-Apr-22 20:30N 59°35' E 024°48'0 0.1
2018-Apr-22 20:00N 59°35' E 024°48'0 0.3
2018-Apr-22 19:31N 59°35' E 024°48'2 5.0
2018-Apr-22 19:00N 59°37' E 024°46'2 4.6
2018-Apr-22 18:31N 59°36' E 024°41'3 6.3
2018-Apr-22 18:00N 59°33' E 024°44'510.1
2018-Apr-22 17:30N 59°28' E 024°45'1 2.3
2018-Apr-22 17:00N 59°28' E 024°43'0 0.0
2018-Apr-22 16:30N 59°28' E 024°43'0 0.0
2018-Apr-22 16:00N 59°28' E 024°43'0 0.0
2018-Apr-22 15:30N 59°28' E 024°43'0 0.0
2018-Apr-22 15:00N 59°28' E 024°43'0 0.0
2018-Apr-22 14:30N 59°28' E 024°43'0 0.0
2018-Apr-22 14:00N 59°28' E 024°43'0 0.0
2018-Apr-22 13:30N 59°28' E 024°43'0 0.0
2018-Apr-22 13:00N 59°28' E 024°43'0 0.0
2018-Apr-22 12:30N 59°28' E 024°43'0 0.0
2018-Apr-22 12:01N 59°28' E 024°43'0 0.0
2018-Apr-22 11:30N 59°28' E 024°43'0 0.0
2018-Apr-22 11:00N 59°28' E 024°43'0 0.0
2018-Apr-22 10:30N 59°28' E 024°43'0 0.0
2018-Apr-22 10:00N 59°28' E 024°43'0 0.0
2018-Apr-22 09:31N 59°28' E 024°43'0 0.0
2018-Apr-22 09:00N 59°28' E 024°43'0 0.0
2018-Apr-22 08:30N 59°28' E 024°43'0 0.0
2018-Apr-22 08:00N 59°28' E 024°43'0 0.0
2018-Apr-22 07:30N 59°28' E 024°43'0 0.0
2018-Apr-22 07:00N 59°28' E 024°43'0 0.0
2018-Apr-22 06:30N 59°28' E 024°43'0 0.0
2018-Apr-22 06:00N 59°28' E 024°43'0 0.0
2018-Apr-22 05:30N 59°28' E 024°43'0 0.0
2018-Apr-22 05:00N 59°28' E 024°43'0 0.0
2018-Apr-22 04:30N 59°28' E 024°43'0 0.0
2018-Apr-22 04:00N 59°28' E 024°43'0 0.0
2018-Apr-22 03:30N 59°28' E 024°43'0 0.0
2018-Apr-22 03:00N 59°28' E 024°43'0 0.0
2018-Apr-22 02:31N 59°28' E 024°43'0 0.0
2018-Apr-22 02:01N 59°28' E 024°43'0 0.0
2018-Apr-22 01:30N 59°28' E 024°43'0 0.0
2018-Apr-22 01:00N 59°28' E 024°43'0 0.0
2018-Apr-22 00:30N 59°28' E 024°43'0 0.0
2018-Apr-22 00:01N 59°28' E 024°43'0 0.0
2018-Apr-21 23:31N 59°28' E 024°43'0 0.0
2018-Apr-21 23:01N 59°28' E 024°43'0 0.0
2018-Apr-21 22:30N 59°28' E 024°43'0 0.0
2018-Apr-21 22:00N 59°28' E 024°43'0 0.0
2018-Apr-21 21:30N 59°28' E 024°43'0 0.0
2018-Apr-21 21:01N 59°28' E 024°43'0 0.0
2018-Apr-21 20:31N 59°28' E 024°43'0 0.0
2018-Apr-21 20:01N 59°28' E 024°43'0 0.0
2018-Apr-21 19:30N 59°28' E 024°43'0 0.0
2018-Apr-21 19:00N 59°28' E 024°43'0 0.0
2018-Apr-21 18:31N 59°28' E 024°43'0 0.0
2018-Apr-21 18:00N 59°28' E 024°43'0 0.0
2018-Apr-21 17:30N 59°28' E 024°43'0 0.0
2018-Apr-21 17:01N 59°28' E 024°43'0 0.0
2018-Apr-21 16:30N 59°28' E 024°43'0 0.0
2018-Apr-21 16:00N 59°28' E 024°43'0 0.0
2018-Apr-21 15:30N 59°28' E 024°43'0 0.0
2018-Apr-21 15:01N 59°28' E 024°43'0 0.0
2018-Apr-21 14:30N 59°28' E 024°43'1 2.6
2018-Apr-21 14:00N 59°29' E 024°44'510.4
2018-Apr-21 13:31N 59°34' E 024°41'4 8.3
2018-Apr-21 13:00N 59°38' E 024°43'4 8.4
2018-Apr-21 12:31N 59°35' E 024°49'0 0.3
2018-Apr-21 12:00N 59°35' E 024°50'0 0.0
2018-Apr-21 11:30N 59°35' E 024°50'0 0.1
2018-Apr-21 11:00N 59°35' E 024°50'0 0.1
2018-Apr-21 10:30N 59°35' E 024°49'0 0.0
2018-Apr-21 10:01N 59°35' E 024°49'0 0.2
2018-Apr-21 09:30N 59°35' E 024°50'3 6.4
2018-Apr-21 09:00N 59°37' E 024°45'4 7.2
2018-Apr-21 08:30N 59°34' E 024°43'3 5.6
2018-Apr-21 08:00N 59°31' E 024°45'3 6.0
2018-Apr-21 07:30N 59°28' E 024°44'1 2.1
2018-Apr-21 07:00N 59°28' E 024°43'0 0.0
2018-Apr-21 06:30N 59°28' E 024°43'0 0.0
2018-Apr-21 06:00N 59°28' E 024°43'0 0.0
2018-Apr-21 05:31N 59°28' E 024°43'0 0.0
2018-Apr-21 05:00N 59°28' E 024°43'0 0.0
2018-Apr-21 04:30N 59°28' E 024°43'0 0.0
2018-Apr-21 04:00N 59°28' E 024°43'0 0.0
2018-Apr-21 03:30N 59°28' E 024°43'0 0.0
2018-Apr-21 03:00N 59°28' E 024°43'0 0.0
2018-Apr-21 02:30N 59°28' E 024°43'0 0.0
2018-Apr-21 02:00N 59°28' E 024°43'0 0.0
2018-Apr-21 01:30N 59°28' E 024°43'0 0.0
2018-Apr-21 01:01N 59°28' E 024°43'0 0.0
2018-Apr-21 00:30N 59°28' E 024°43'0 0.0
2018-Apr-21 00:00N 59°28' E 024°43'0 0.3
2018-Apr-20 23:30N 59°28' E 024°43'3 6.1
2018-Apr-20 23:00N 59°30' E 024°40'2 4.3
2018-Apr-20 22:31N 59°30' E 024°36'0 0.0
2018-Apr-20 22:00N 59°30' E 024°37'0 0.1
2018-Apr-20 21:30N 59°30' E 024°36'0 0.0
2018-Apr-20 21:00N 59°30' E 024°36'0 0.0
2018-Apr-20 20:30N 59°30' E 024°36'0 0.1
2018-Apr-20 20:00N 59°30' E 024°37'0 0.0
2018-Apr-20 19:30N 59°30' E 024°37'0 0.1
2018-Apr-20 19:00N 59°30' E 024°37'2 4.0
2018-Apr-20 18:30N 59°28' E 024°38'0 0.5
2018-Apr-20 18:00N 59°28' E 024°39'0 0.0
2018-Apr-20 17:30N 59°28' E 024°39'0 0.0
2018-Apr-20 17:01N 59°28' E 024°39'0 0.0
2018-Apr-20 16:30N 59°28' E 024°39'0 0.4
2018-Apr-20 16:00N 59°28' E 024°39'0 0.0
2018-Apr-20 15:30N 59°28' E 024°39'0 0.0
2018-Apr-20 15:00N 59°28' E 024°39'0 0.0
2018-Apr-20 14:30N 59°28' E 024°39'0 0.0
2018-Apr-20 14:00N 59°28' E 024°39'0 0.0
2018-Apr-20 13:30N 59°28' E 024°39'0 0.3
2018-Apr-20 13:00N 59°28' E 024°39'3 5.9
2018-Apr-20 12:31N 59°30' E 024°35'4 8.8
2018-Apr-20 12:00N 59°34' E 024°39'4 8.4
2018-Apr-20 11:30N 59°37' E 024°42'4 7.6
2018-Apr-20 11:00N 59°36' E 024°49'5 9.1
2018-Apr-20 10:30N 59°33' E 024°55'3 5.6
2018-Apr-20 09:58N 59°30' E 024°56'0 0.0
2018-Apr-20 09:28N 59°30' E 024°56'0 0.0
2018-Apr-20 08:58N 59°30' E 024°56'0 0.0
2018-Apr-20 08:30N 59°30' E 024°56'0 0.0
2018-Apr-20 07:58N 59°30' E 024°56'0 0.0
2018-Apr-20 07:28N 59°30' E 024°56'0 0.0
2018-Apr-20 06:58N 59°30' E 024°56'0 0.0
2018-Apr-20 06:28N 59°30' E 024°56'0 0.0
2018-Apr-20 05:58N 59°30' E 024°56'0 0.0
2018-Apr-20 05:31N 59°30' E 024°56'0 0.0
2018-Apr-20 04:58N 59°30' E 024°56'0 0.0
2018-Apr-20 04:28N 59°30' E 024°56'0 0.0
2018-Apr-20 03:58N 59°30' E 024°56'0 0.0
2018-Apr-20 03:28N 59°30' E 024°56'0 0.0
2018-Apr-20 02:58N 59°30' E 024°56'0 0.0
2018-Apr-20 02:28N 59°30' E 024°56'0 0.0
2018-Apr-20 01:58N 59°30' E 024°56'0 0.0
2018-Apr-20 01:30N 59°30' E 024°56'0 0.0
2018-Apr-20 00:58N 59°30' E 024°56'0 0.0
2018-Apr-20 00:28N 59°30' E 024°56'0 0.0
2018-Apr-19 23:58N 59°30' E 024°56'0 0.3
2018-Apr-19 23:28N 59°30' E 024°57'0 0.0
2018-Apr-19 23:01N 59°30' E 024°57'0 0.0
2018-Apr-19 22:28N 59°30' E 024°57'0 0.0
2018-Apr-19 21:58N 59°30' E 024°57'0 0.0
2018-Apr-19 21:28N 59°30' E 024°57'0 0.1
2018-Apr-19 21:01N 59°30' E 024°57'2 4.6
2018-Apr-19 20:30N 59°32' E 024°56'5 9.6
2018-Apr-19 20:00N 59°35' E 024°49'0 0.3
2018-Apr-19 19:30N 59°35' E 024°49'0 0.0
2018-Apr-19 19:01N 59°35' E 024°49'0 0.0
2018-Apr-19 18:30N 59°35' E 024°49'0 0.0
2018-Apr-19 18:01N 59°35' E 024°49'0 0.0
2018-Apr-19 17:30N 59°35' E 024°49'1 2.1
2018-Apr-19 17:01N 59°36' E 024°48'3 6.5
2018-Apr-19 16:30N 59°35' E 024°42'5 9.9
2018-Apr-19 16:00N 59°31' E 024°44'5 9.3
2018-Apr-19 15:30N 59°28' E 024°37'0 0.9
2018-Apr-19 14:58N 59°27' E 024°37'0 0.0
2018-Apr-19 14:28N 59°27' E 024°37'0 0.0
2018-Apr-19 13:58N 59°27' E 024°37'0 0.0
2018-Apr-19 13:28N 59°27' E 024°37'0 0.0
2018-Apr-19 12:58N 59°27' E 024°37'0 0.0
2018-Apr-19 12:31N 59°27' E 024°37'1 1.8
2018-Apr-19 12:00N 59°27' E 024°39'0 0.8
2018-Apr-19 11:31N 59°28' E 024°39'0 0.0
2018-Apr-19 11:01N 59°28' E 024°39'0 0.0
2018-Apr-19 10:31N 59°28' E 024°39'0 0.0
2018-Apr-19 10:01N 59°28' E 024°39'0 0.0
2018-Apr-19 09:31N 59°28' E 024°39'0 0.0
2018-Apr-19 09:01N 59°28' E 024°39'0 0.5
2018-Apr-19 08:31N 59°27' E 024°39'3 5.2
2018-Apr-19 08:00N 59°30' E 024°40'3 5.4
2018-Apr-19 07:30N 59°28' E 024°43'0 0.2
2018-Apr-19 07:01N 59°28' E 024°43'0 0.0
2018-Apr-19 06:30N 59°28' E 024°43'0 0.0
2018-Apr-19 06:00N 59°28' E 024°43'0 0.0
2018-Apr-19 05:30N 59°28' E 024°43'0 0.0
2018-Apr-19 05:00N 59°28' E 024°43'0 0.0
2018-Apr-19 04:30N 59°28' E 024°43'0 0.0
2018-Apr-19 04:00N 59°28' E 024°43'0 0.0
2018-Apr-19 03:30N 59°28' E 024°43'0 0.0
2018-Apr-19 03:00N 59°28' E 024°43'0 0.0
2018-Apr-19 02:30N 59°28' E 024°43'0 0.0
2018-Apr-19 02:00N 59°28' E 024°43'0 0.0
2018-Apr-19 01:30N 59°28' E 024°43'0 0.0
2018-Apr-19 01:00N 59°28' E 024°43'0 0.0
2018-Apr-19 00:29N 59°28' E 024°43'0 0.0
2018-Apr-19 00:00N 59°28' E 024°43'0 0.0
2018-Apr-18 23:31N 59°28' E 024°43'0 0.0
2018-Apr-18 23:00N 59°28' E 024°43'0 0.0
2018-Apr-18 22:30N 59°28' E 024°43'0 0.0
2018-Apr-18 22:00N 59°28' E 024°43'0 0.0
2018-Apr-18 21:30N 59°28' E 024°43'0 0.0
2018-Apr-18 21:00N 59°28' E 024°43'0 0.0
2018-Apr-18 20:31N 59°28' E 024°43'0 0.0
2018-Apr-18 20:01N 59°28' E 024°43'0 0.0
2018-Apr-18 19:30N 59°28' E 024°43'0 0.0
2018-Apr-18 19:00N 59°28' E 024°43'0 0.0
2018-Apr-18 18:30N 59°28' E 024°43'0 0.0
2018-Apr-18 18:00N 59°28' E 024°43'0 0.0
2018-Apr-18 17:30N 59°28' E 024°43'0 0.0
2018-Apr-18 17:00N 59°28' E 024°43'0 0.0
2018-Apr-18 16:30N 59°28' E 024°43'0 0.0
2018-Apr-18 16:00N 59°28' E 024°43'0 0.0
2018-Apr-18 15:30N 59°28' E 024°43'0 0.0
2018-Apr-18 15:00N 59°28' E 024°43'0 0.0
2018-Apr-18 14:30N 59°28' E 024°43'0 0.0
2018-Apr-18 14:00N 59°28' E 024°43'0 0.0
2018-Apr-18 13:30N 59°28' E 024°43'0 0.1
2018-Apr-18 13:00N 59°28' E 024°43'0 0.4
2018-Apr-18 12:25N 59°28' E 024°42'0 0.0
2018-Apr-18 11:55N 59°28' E 024°42'0 0.0
2018-Apr-18 11:25N 59°28' E 024°42'0 0.0
2018-Apr-18 10:56N 59°28' E 024°42'0 0.0
2018-Apr-18 10:25N 59°28' E 024°42'0 0.0
2018-Apr-18 09:59N 59°28' E 024°42'0 0.0
2018-Apr-18 09:26N 59°28' E 024°42'0 0.0
2018-Apr-18 08:56N 59°28' E 024°42'0 0.0
2018-Apr-18 08:26N 59°28' E 024°42'0 0.0
2018-Apr-18 07:55N 59°28' E 024°42'0 0.0
2018-Apr-18 07:27N 59°28' E 024°42'0 0.0
2018-Apr-18 06:55N 59°28' E 024°42'0 0.0
2018-Apr-18 06:25N 59°28' E 024°42'0 0.0
2018-Apr-18 05:56N 59°28' E 024°42'0 0.0
2018-Apr-18 05:25N 59°28' E 024°42'0 0.0
2018-Apr-18 04:56N 59°28' E 024°42'0 0.0
2018-Apr-18 04:26N 59°28' E 024°42'0 0.0
2018-Apr-18 03:56N 59°28' E 024°42'0 0.0
2018-Apr-18 03:26N 59°28' E 024°42'0 0.0
2018-Apr-18 02:56N 59°28' E 024°42'0 0.0
2018-Apr-18 02:26N 59°28' E 024°42'0 0.0
2018-Apr-18 01:55N 59°28' E 024°42'0 0.0
2018-Apr-18 01:25N 59°28' E 024°42'0 0.0
2018-Apr-18 00:56N 59°28' E 024°42'0 0.0
2018-Apr-18 00:25N 59°28' E 024°42'0 0.0
2018-Apr-17 23:56N 59°28' E 024°42'0 0.0
2018-Apr-17 23:25N 59°28' E 024°42'0 0.0
2018-Apr-17 22:56N 59°28' E 024°42'0 0.0
2018-Apr-17 22:26N 59°28' E 024°42'0 0.0
2018-Apr-17 21:56N 59°28' E 024°42'0 0.0
2018-Apr-17 21:25N 59°28' E 024°42'0 0.0
2018-Apr-17 20:56N 59°28' E 024°42'0 0.0
2018-Apr-17 20:26N 59°28' E 024°42'0 0.0
2018-Apr-17 19:56N 59°28' E 024°42'0 0.0
2018-Apr-17 19:25N 59°28' E 024°42'0 0.0
2018-Apr-17 18:56N 59°28' E 024°42'0 0.0
2018-Apr-17 18:26N 59°28' E 024°42'0 0.0
2018-Apr-17 17:57N 59°28' E 024°42'0 0.0
2018-Apr-17 17:25N 59°28' E 024°42'0 0.0
2018-Apr-17 16:56N 59°28' E 024°42'0 0.0
2018-Apr-17 16:26N 59°28' E 024°42'0 0.0
2018-Apr-17 15:56N 59°28' E 024°42'0 0.0
2018-Apr-17 15:26N 59°28' E 024°42'0 0.0
2018-Apr-17 14:56N 59°28' E 024°42'0 0.0
2018-Apr-17 14:25N 59°28' E 024°42'0 0.0
2018-Apr-17 13:56N 59°28' E 024°42'0 0.0
2018-Apr-17 13:27N 59°28' E 024°42'0 0.0
2018-Apr-17 12:56N 59°28' E 024°42'0 0.0
2018-Apr-17 12:26N 59°28' E 024°42'0 0.0
2018-Apr-17 11:56N 59°28' E 024°42'0 0.0
2018-Apr-17 11:27N 59°28' E 024°42'0 0.0
2018-Apr-17 10:57N 59°28' E 024°42'0 0.0
2018-Apr-17 10:27N 59°28' E 024°42'0 0.0
2018-Apr-17 09:57N 59°28' E 024°42'0 0.0
2018-Apr-17 09:25N 59°28' E 024°42'0 0.0
2018-Apr-17 08:58N 59°28' E 024°42'0 0.0
2018-Apr-17 08:29N 59°28' E 024°42'0 0.0
2018-Apr-17 07:58N 59°28' E 024°42'0 0.0
2018-Apr-17 07:28N 59°28' E 024°42'0 0.0
2018-Apr-17 06:58N 59°28' E 024°42'0 0.0
2018-Apr-17 06:28N 59°28' E 024°42'0 0.0
2018-Apr-17 05:58N 59°28' E 024°42'0 0.0
2018-Apr-17 05:28N 59°28' E 024°42'0 0.0
2018-Apr-17 04:58N 59°28' E 024°42'0 0.0
2018-Apr-17 04:28N 59°28' E 024°42'0 0.0
2018-Apr-17 03:58N 59°28' E 024°42'0 0.0
2018-Apr-17 03:28N 59°28' E 024°42'0 0.0
2018-Apr-17 02:58N 59°28' E 024°42'0 0.0
2018-Apr-17 02:29N 59°28' E 024°42'0 0.0
2018-Apr-17 01:59N 59°28' E 024°42'0 0.0
2018-Apr-17 01:30N 59°28' E 024°42'0 0.0
2018-Apr-17 00:59N 59°28' E 024°42'0 0.0
2018-Apr-17 00:29N 59°28' E 024°42'0 0.0
2018-Apr-16 23:59N 59°28' E 024°42'0 0.0
2018-Apr-16 23:29N 59°28' E 024°42'0 0.0
2018-Apr-16 22:59N 59°28' E 024°42'0 0.0
2018-Apr-16 22:30N 59°28' E 024°42'0 0.0
2018-Apr-16 21:59N 59°28' E 024°42'0 0.0
2018-Apr-16 21:29N 59°28' E 024°42'0 0.0
2018-Apr-16 20:59N 59°28' E 024°42'0 0.0
2018-Apr-16 20:29N 59°28' E 024°42'0 0.0
2018-Apr-16 19:59N 59°28' E 024°42'0 0.0
2018-Apr-16 19:29N 59°28' E 024°42'0 0.0
2018-Apr-16 18:59N 59°28' E 024°42'0 0.0
2018-Apr-16 18:29N 59°28' E 024°42'0 0.0
2018-Apr-16 17:59N 59°28' E 024°42'0 0.0
2018-Apr-16 17:29N 59°28' E 024°42'0 0.0
2018-Apr-16 17:00N 59°28' E 024°42'0 0.0
2018-Apr-16 16:29N 59°28' E 024°42'0 0.0
2018-Apr-16 15:59N 59°28' E 024°42'0 0.0
2018-Apr-16 15:29N 59°28' E 024°42'0 0.0
2018-Apr-16 14:54N 59°28' E 024°42'0 0.0
2018-Apr-16 14:30N 59°28' E 024°42'0 0.0
2018-Apr-16 14:00N 59°28' E 024°42'0 0.0
2018-Apr-16 13:30N 59°28' E 024°42'0 0.0
2018-Apr-16 13:00N 59°28' E 024°42'0 0.0
2018-Apr-16 12:30N 59°28' E 024°42'0 0.0
2018-Apr-16 12:00N 59°28' E 024°42'0 0.0
2018-Apr-16 11:30N 59°28' E 024°42'0 0.0
2018-Apr-16 11:00N 59°28' E 024°42'0 0.0
2018-Apr-16 10:30N 59°28' E 024°42'0 0.0
2018-Apr-16 10:00N 59°28' E 024°42'0 0.0
2018-Apr-16 09:30N 59°28' E 024°42'0 0.0
2018-Apr-16 09:01N 59°28' E 024°42'0 0.0
2018-Apr-16 08:30N 59°28' E 024°42'0 0.0
2018-Apr-16 08:00N 59°28' E 024°42'0 0.0
2018-Apr-16 07:30N 59°28' E 024°42'0 0.0
2018-Apr-16 07:00N 59°28' E 024°42'0 0.0
2018-Apr-16 06:30N 59°28' E 024°42'0 0.0
2018-Apr-16 06:00N 59°28' E 024°42'0 0.0
2018-Apr-16 05:31N 59°28' E 024°42'0 0.0
2018-Apr-16 05:00N 59°28' E 024°42'0 0.0
2018-Apr-16 04:30N 59°28' E 024°42'0 0.0
2018-Apr-16 04:00N 59°28' E 024°42'0 0.0
2018-Apr-16 03:30N 59°28' E 024°42'0 0.0
2018-Apr-16 03:00N 59°28' E 024°42'0 0.0
2018-Apr-16 02:30N 59°28' E 024°42'0 0.0
2018-Apr-16 02:00N 59°28' E 024°42'0 0.0
2018-Apr-16 01:31N 59°28' E 024°42'0 0.0
2018-Apr-16 01:00N 59°28' E 024°42'0 0.0
2018-Apr-16 00:30N 59°28' E 024°42'0 0.0
2018-Apr-16 00:00N 59°28' E 024°42'0 0.0
2018-Apr-15 23:30N 59°28' E 024°42'0 0.0
2018-Apr-15 23:00N 59°28' E 024°42'0 0.0
2018-Apr-15 22:30N 59°28' E 024°42'0 0.0
2018-Apr-15 22:00N 59°28' E 024°42'0 0.0
2018-Apr-15 21:31N 59°28' E 024°42'0 0.0
2018-Apr-15 21:00N 59°28' E 024°42'0 0.0
2018-Apr-15 20:30N 59°28' E 024°42'0 0.0
2018-Apr-15 20:01N 59°28' E 024°42'0 0.0
2018-Apr-15 19:30N 59°28' E 024°42'0 0.0
2018-Apr-15 19:00N 59°28' E 024°42'0 0.0
2018-Apr-15 18:30N 59°28' E 024°42'0 0.0
2018-Apr-15 18:00N 59°28' E 024°42'0 0.0
2018-Apr-15 17:30N 59°28' E 024°42'0 0.0
2018-Apr-15 17:00N 59°28' E 024°42'0 0.0
2018-Apr-15 16:30N 59°28' E 024°42'0 0.0
2018-Apr-15 15:57N 59°28' E 024°42'0 0.0
2018-Apr-15 15:30N 59°28' E 024°42'0 0.0
2018-Apr-15 15:00N 59°28' E 024°42'0 0.0
2018-Apr-15 14:30N 59°28' E 024°42'0 0.0
2018-Apr-15 14:01N 59°28' E 024°42'0 0.0
2018-Apr-15 13:31N 59°28' E 024°42'0 0.0
2018-Apr-15 12:57N 59°28' E 024°42'0 0.0
2018-Apr-15 12:30N 59°28' E 024°42'0 0.0
2018-Apr-15 12:00N 59°28' E 024°42'2 3.1
2018-Apr-15 11:30N 59°29' E 024°44'4 8.2
2018-Apr-15 11:00N 59°29' E 024°36'0 0.2
2018-Apr-15 10:30N 59°29' E 024°36'  

Dump ship's entire track history